Portada
METAR-TAF:

METAR-TAF

Aeroports :

Zanjan, Iran

latitud: 36-41N, longitud: 048-29E, altitud: 1663 m

Observació

L'informe es va fer fa 12 minuts, a les 11:00 UTC
Vent 17 kt del Sud
Temperatura 36°C
Humitat 9%
Pressió 1016 hPa
Visibilitat 10 km o més
Escasses núvols a una alçada de 3000 ft

METAR: OITZ 241100Z 18017KT 9999 FEW030 36/M02 Q1016

Hora: 15:42 (11:12 UTC)


TAF: manca

Observacions i pronòstics meteorològics de més de 4000 aeroports (METAR i TAF).

Les estacions disponibles són els punts grocs i vermells al mapa.

Posi el ratolí al punt desitjat per veure el nom de l'estació.

Feu clic per veure les observacions i els pronòstics meteorològics.

Per canviar el mapa: feu clic els botons verds amb una creu de color negre per apropar; al botó verd amb un guió per allunyar la imatge; o en les fletxes verdes per a mapes adjacents.


METAR-TAF: